sensor_id;sensor_type;location;lat;lon;timestamp;P1;durP1;ratioP1;P2;durP2;ratioP2
18726;SDS011;9492;51.888;5.186;2023-07-02T00:01:15;14.57;;;6.67;;
18726;SDS011;9492;51.888;5.186;2023-07-02T00:03:41;14.43;;;7.27;;
18726;SDS011;9492;51.888;5.186;2023-07-02T00:06:07;14.97;;;7.20;;
18726;SDS011;9492;51.888;5.186;2023-07-02T00:08:33;12.67;;;7.93;;
18726;SDS011;9492;51.888;5.186;2023-07-02T00:10:59;18.60;;;8.03;;
18726;SDS011;9492;51.888;5.186;2023-07-02T00:13:25;14.13;;;7.90;;
18726;SDS011;9492;51.888;5.186;2023-07-02T00:15:51;17.10;;;8.63;;
18726;SDS011;9492;51.888;5.186;2023-07-02T00:18:17;16.27;;;7.70;;
18726;SDS011;9492;51.888;5.186;2023-07-02T00:20:43;12.30;;;5.27;;
18726;SDS011;9492;51.888;5.186;2023-07-02T00:23:09;12.70;;;6.33;;
18726;SDS011;9492;51.888;5.186;2023-07-02T00:25:35;11.53;;;5.17;;
18726;SDS011;9492;51.888;5.186;2023-07-02T00:28:02;8.47;;;5.03;;
18726;SDS011;9492;51.888;5.186;2023-07-02T00:30:28;10.37;;;4.97;;
18726;SDS011;9492;51.888;5.186;2023-07-02T00:32:55;9.20;;;4.80;;
18726;SDS011;9492;51.888;5.186;2023-07-02T00:35:21;11.27;;;4.67;;
18726;SDS011;9492;51.888;5.186;2023-07-02T00:37:48;10.13;;;5.37;;
18726;SDS011;9492;51.888;5.186;2023-07-02T00:40:14;8.93;;;4.83;;
18726;SDS011;9492;51.888;5.186;2023-07-02T00:42:40;11.23;;;5.47;;
18726;SDS011;9492;51.888;5.186;2023-07-02T00:45:06;10.33;;;5.30;;
18726;SDS011;9492;51.888;5.186;2023-07-02T00:47:33;14.27;;;5.63;;
18726;SDS011;9492;51.888;5.186;2023-07-02T00:50:00;13.00;;;5.37;;
18726;SDS011;9492;51.888;5.186;2023-07-02T00:52:26;10.47;;;5.57;;
18726;SDS011;9492;51.888;5.186;2023-07-02T00:54:52;10.53;;;5.00;;
18726;SDS011;9492;51.888;5.186;2023-07-02T00:57:18;8.57;;;4.77;;
18726;SDS011;9492;51.888;5.186;2023-07-02T00:59:45;10.87;;;4.63;;
18726;SDS011;9492;51.888;5.186;2023-07-02T01:02:11;12.07;;;4.97;;
18726;SDS011;9492;51.888;5.186;2023-07-02T01:04:38;10.00;;;5.40;;
18726;SDS011;9492;51.888;5.186;2023-07-02T01:07:04;9.37;;;5.43;;
18726;SDS011;9492;51.888;5.186;2023-07-02T01:09:35;8.13;;;4.73;;
18726;SDS011;9492;51.888;5.186;2023-07-02T01:12:02;13.20;;;5.50;;
18726;SDS011;9492;51.888;5.186;2023-07-02T01:14:33;9.83;;;4.83;;
18726;SDS011;9492;51.888;5.186;2023-07-02T01:17:01;9.20;;;4.80;;
18726;SDS011;9492;51.888;5.186;2023-07-02T01:21:59;7.20;;;5.23;;
18726;SDS011;9492;51.888;5.186;2023-07-02T01:24:26;8.57;;;5.00;;
18726;SDS011;9492;51.888;5.186;2023-07-02T01:26:52;9.20;;;4.53;;
18726;SDS011;9492;51.888;5.186;2023-07-02T01:29:19;6.37;;;4.33;;
18726;SDS011;9492;51.888;5.186;2023-07-02T01:31:45;9.37;;;4.93;;
18726;SDS011;9492;51.888;5.186;2023-07-02T01:34:12;6.60;;;4.40;;
18726;SDS011;9492;51.888;5.186;2023-07-02T01:36:39;11.37;;;4.70;;
18726;SDS011;9492;51.888;5.186;2023-07-02T01:39:05;8.87;;;4.80;;
18726;SDS011;9492;51.888;5.186;2023-07-02T01:41:41;7.53;;;4.87;;
18726;SDS011;9492;51.888;5.186;2023-07-02T01:44:07;11.23;;;5.50;;
18726;SDS011;9492;51.888;5.186;2023-07-02T01:46:33;9.13;;;4.93;;
18726;SDS011;9492;51.888;5.186;2023-07-02T01:48:59;9.13;;;4.87;;
18726;SDS011;9492;51.888;5.186;2023-07-02T01:51:25;8.60;;;4.60;;
18726;SDS011;9492;51.888;5.186;2023-07-02T01:53:51;13.47;;;5.47;;
18726;SDS011;9492;51.888;5.186;2023-07-02T01:56:17;10.87;;;5.27;;
18726;SDS011;9492;51.888;5.186;2023-07-02T01:58:43;10.37;;;5.23;;
18726;SDS011;9492;51.888;5.186;2023-07-02T02:01:09;10.90;;;5.37;;
18726;SDS011;9492;51.888;5.186;2023-07-02T02:03:35;10.17;;;4.43;;
18726;SDS011;9492;51.888;5.186;2023-07-02T02:06:01;12.03;;;4.97;;
18726;SDS011;9492;51.888;5.186;2023-07-02T02:08:27;10.40;;;4.73;;
18726;SDS011;9492;51.888;5.186;2023-07-02T02:10:53;16.23;;;4.87;;
18726;SDS011;9492;51.888;5.186;2023-07-02T02:13:19;9.80;;;4.67;;
18726;SDS011;9492;51.888;5.186;2023-07-02T02:15:45;7.40;;;5.10;;
18726;SDS011;9492;51.888;5.186;2023-07-02T02:18:11;10.57;;;4.33;;
18726;SDS011;9492;51.888;5.186;2023-07-02T02:20:38;8.60;;;5.03;;
18726;SDS011;9492;51.888;5.186;2023-07-02T02:23:04;10.00;;;5.50;;
18726;SDS011;9492;51.888;5.186;2023-07-02T02:25:30;10.37;;;5.27;;
18726;SDS011;9492;51.888;5.186;2023-07-02T02:27:56;12.07;;;5.10;;
18726;SDS011;9492;51.888;5.186;2023-07-02T02:30:22;10.80;;;5.70;;
18726;SDS011;9492;51.888;5.186;2023-07-02T02:32:48;10.43;;;5.13;;
18726;SDS011;9492;51.888;5.186;2023-07-02T02:35:14;8.97;;;4.90;;
18726;SDS011;9492;51.888;5.186;2023-07-02T02:37:40;9.67;;;5.00;;
18726;SDS011;9492;51.888;5.186;2023-07-02T02:40:07;10.50;;;5.33;;
18726;SDS011;9492;51.888;5.186;2023-07-02T02:42:34;11.20;;;4.97;;
18726;SDS011;9492;51.888;5.186;2023-07-02T02:45:01;11.53;;;5.20;;
18726;SDS011;9492;51.888;5.186;2023-07-02T02:47:27;10.80;;;5.27;;
18726;SDS011;9492;51.888;5.186;2023-07-02T02:49:53;12.00;;;5.37;;
18726;SDS011;9492;51.888;5.186;2023-07-02T02:52:19;9.83;;;5.10;;
18726;SDS011;9492;51.888;5.186;2023-07-02T02:54:45;13.13;;;5.57;;
18726;SDS011;9492;51.888;5.186;2023-07-02T02:57:11;9.80;;;5.90;;
18726;SDS011;9492;51.888;5.186;2023-07-02T02:59:38;10.37;;;6.10;;
18726;SDS011;9492;51.888;5.186;2023-07-02T03:02:04;8.57;;;5.60;;
18726;SDS011;9492;51.888;5.186;2023-07-02T03:04:30;9.47;;;5.40;;
18726;SDS011;9492;51.888;5.186;2023-07-02T03:06:56;10.27;;;6.03;;
18726;SDS011;9492;51.888;5.186;2023-07-02T03:09:22;16.30;;;6.27;;
18726;SDS011;9492;51.888;5.186;2023-07-02T03:11:48;11.03;;;6.13;;
18726;SDS011;9492;51.888;5.186;2023-07-02T03:14:14;13.07;;;6.60;;
18726;SDS011;9492;51.888;5.186;2023-07-02T03:16:41;11.57;;;6.33;;
18726;SDS011;9492;51.888;5.186;2023-07-02T03:19:07;18.20;;;6.43;;
18726;SDS011;9492;51.888;5.186;2023-07-02T03:21:33;15.07;;;7.40;;
18726;SDS011;9492;51.888;5.186;2023-07-02T03:23:59;13.33;;;6.80;;
18726;SDS011;9492;51.888;5.186;2023-07-02T03:26:25;13.47;;;6.70;;
18726;SDS011;9492;51.888;5.186;2023-07-02T03:28:51;11.77;;;6.73;;
18726;SDS011;9492;51.888;5.186;2023-07-02T03:31:17;13.90;;;6.60;;
18726;SDS011;9492;51.888;5.186;2023-07-02T03:33:43;15.47;;;6.87;;
18726;SDS011;9492;51.888;5.186;2023-07-02T03:36:09;11.40;;;6.73;;
18726;SDS011;9492;51.888;5.186;2023-07-02T03:38:35;17.43;;;6.90;;
18726;SDS011;9492;51.888;5.186;2023-07-02T03:41:01;18.07;;;7.47;;
18726;SDS011;9492;51.888;5.186;2023-07-02T03:43:27;10.07;;;6.53;;
18726;SDS011;9492;51.888;5.186;2023-07-02T03:45:53;15.10;;;6.47;;
18726;SDS011;9492;51.888;5.186;2023-07-02T03:48:19;13.07;;;6.27;;
18726;SDS011;9492;51.888;5.186;2023-07-02T03:50:45;18.63;;;7.00;;
18726;SDS011;9492;51.888;5.186;2023-07-02T03:53:11;15.10;;;7.47;;
18726;SDS011;9492;51.888;5.186;2023-07-02T03:55:37;14.00;;;6.50;;
18726;SDS011;9492;51.888;5.186;2023-07-02T03:58:04;16.50;;;7.23;;
18726;SDS011;9492;51.888;5.186;2023-07-02T04:00:30;15.07;;;6.83;;
18726;SDS011;9492;51.888;5.186;2023-07-02T04:02:56;13.03;;;7.20;;
18726;SDS011;9492;51.888;5.186;2023-07-02T04:05:22;17.23;;;7.13;;
18726;SDS011;9492;51.888;5.186;2023-07-02T04:07:48;18.13;;;7.27;;
18726;SDS011;9492;51.888;5.186;2023-07-02T04:10:14;16.67;;;7.57;;
18726;SDS011;9492;51.888;5.186;2023-07-02T04:12:41;13.67;;;6.97;;
18726;SDS011;9492;51.888;5.186;2023-07-02T04:15:07;17.10;;;6.80;;
18726;SDS011;9492;51.888;5.186;2023-07-02T04:17:33;12.23;;;6.23;;
18726;SDS011;9492;51.888;5.186;2023-07-02T04:20:00;12.03;;;6.30;;
18726;SDS011;9492;51.888;5.186;2023-07-02T04:22:28;15.23;;;6.93;;
18726;SDS011;9492;51.888;5.186;2023-07-02T04:24:55;15.30;;;7.30;;
18726;SDS011;9492;51.888;5.186;2023-07-02T04:27:21;16.57;;;7.57;;
18726;SDS011;9492;51.888;5.186;2023-07-02T04:29:47;16.53;;;7.23;;
18726;SDS011;9492;51.888;5.186;2023-07-02T04:32:13;14.90;;;6.80;;
18726;SDS011;9492;51.888;5.186;2023-07-02T04:34:39;15.87;;;7.30;;
18726;SDS011;9492;51.888;5.186;2023-07-02T04:37:09;15.20;;;6.70;;
18726;SDS011;9492;51.888;5.186;2023-07-02T04:39:35;15.27;;;7.17;;
18726;SDS011;9492;51.888;5.186;2023-07-02T04:42:01;14.10;;;6.53;;
18726;SDS011;9492;51.888;5.186;2023-07-02T04:44:27;14.37;;;6.43;;
18726;SDS011;9492;51.888;5.186;2023-07-02T04:47:00;13.97;;;6.53;;
18726;SDS011;9492;51.888;5.186;2023-07-02T04:49:26;12.67;;;6.17;;
18726;SDS011;9492;51.888;5.186;2023-07-02T04:51:53;16.93;;;7.03;;
18726;SDS011;9492;51.888;5.186;2023-07-02T04:54:20;16.63;;;6.97;;
18726;SDS011;9492;51.888;5.186;2023-07-02T04:56:46;14.07;;;6.70;;
18726;SDS011;9492;51.888;5.186;2023-07-02T04:59:13;14.73;;;7.20;;
18726;SDS011;9492;51.888;5.186;2023-07-02T05:01:39;12.03;;;6.23;;
18726;SDS011;9492;51.888;5.186;2023-07-02T05:04:05;20.33;;;7.40;;
18726;SDS011;9492;51.888;5.186;2023-07-02T05:06:31;16.03;;;6.97;;
18726;SDS011;9492;51.888;5.186;2023-07-02T05:08:57;14.03;;;7.20;;
18726;SDS011;9492;51.888;5.186;2023-07-02T05:11:23;13.87;;;7.20;;
18726;SDS011;9492;51.888;5.186;2023-07-02T05:13:49;19.47;;;7.80;;
18726;SDS011;9492;51.888;5.186;2023-07-02T05:16:16;14.83;;;6.60;;
18726;SDS011;9492;51.888;5.186;2023-07-02T05:18:42;13.03;;;6.10;;
18726;SDS011;9492;51.888;5.186;2023-07-02T05:21:08;22.00;;;7.53;;
18726;SDS011;9492;51.888;5.186;2023-07-02T05:23:34;14.03;;;6.60;;
18726;SDS011;9492;51.888;5.186;2023-07-02T05:26:01;15.10;;;6.50;;
18726;SDS011;9492;51.888;5.186;2023-07-02T05:28:27;12.83;;;6.57;;
18726;SDS011;9492;51.888;5.186;2023-07-02T05:30:53;14.07;;;5.90;;
18726;SDS011;9492;51.888;5.186;2023-07-02T05:33:19;12.57;;;6.30;;
18726;SDS011;9492;51.888;5.186;2023-07-02T05:35:46;15.07;;;6.27;;
18726;SDS011;9492;51.888;5.186;2023-07-02T05:38:13;19.33;;;6.63;;
18726;SDS011;9492;51.888;5.186;2023-07-02T05:40:39;14.13;;;6.43;;
18726;SDS011;9492;51.888;5.186;2023-07-02T05:43:05;14.90;;;6.20;;
18726;SDS011;9492;51.888;5.186;2023-07-02T05:45:31;14.60;;;6.53;;
18726;SDS011;9492;51.888;5.186;2023-07-02T05:47:57;13.73;;;6.40;;
18726;SDS011;9492;51.888;5.186;2023-07-02T05:50:23;13.43;;;5.80;;
18726;SDS011;9492;51.888;5.186;2023-07-02T05:52:49;15.50;;;6.40;;
18726;SDS011;9492;51.888;5.186;2023-07-02T05:55:15;13.73;;;6.27;;
18726;SDS011;9492;51.888;5.186;2023-07-02T05:57:41;12.87;;;5.33;;
18726;SDS011;9492;51.888;5.186;2023-07-02T06:00:08;12.53;;;5.67;;
18726;SDS011;9492;51.888;5.186;2023-07-02T06:02:34;13.60;;;6.30;;
18726;SDS011;9492;51.888;5.186;2023-07-02T06:05:00;13.37;;;5.90;;
18726;SDS011;9492;51.888;5.186;2023-07-02T06:07:26;13.87;;;6.00;;
18726;SDS011;9492;51.888;5.186;2023-07-02T06:09:53;11.40;;;5.63;;
18726;SDS011;9492;51.888;5.186;2023-07-02T06:12:20;13.60;;;5.20;;
18726;SDS011;9492;51.888;5.186;2023-07-02T06:14:46;10.90;;;5.30;;
18726;SDS011;9492;51.888;5.186;2023-07-02T06:17:12;15.67;;;6.27;;
18726;SDS011;9492;51.888;5.186;2023-07-02T06:19:38;11.37;;;5.87;;
18726;SDS011;9492;51.888;5.186;2023-07-02T06:22:04;13.27;;;5.17;;
18726;SDS011;9492;51.888;5.186;2023-07-02T06:24:30;13.83;;;5.43;;
18726;SDS011;9492;51.888;5.186;2023-07-02T06:26:56;12.77;;;5.73;;
18726;SDS011;9492;51.888;5.186;2023-07-02T06:29:23;17.07;;;5.33;;
18726;SDS011;9492;51.888;5.186;2023-07-02T06:31:52;9.93;;;5.00;;
18726;SDS011;9492;51.888;5.186;2023-07-02T06:34:18;13.70;;;6.13;;
18726;SDS011;9492;51.888;5.186;2023-07-02T06:36:44;12.80;;;5.00;;
18726;SDS011;9492;51.888;5.186;2023-07-02T06:39:10;13.63;;;5.40;;
18726;SDS011;9492;51.888;5.186;2023-07-02T06:41:36;12.40;;;5.13;;
18726;SDS011;9492;51.888;5.186;2023-07-02T06:44:02;11.17;;;5.30;;
18726;SDS011;9492;51.888;5.186;2023-07-02T06:46:29;10.00;;;4.60;;
18726;SDS011;9492;51.888;5.186;2023-07-02T06:48:55;11.90;;;4.97;;
18726;SDS011;9492;51.888;5.186;2023-07-02T06:51:21;11.60;;;5.50;;
18726;SDS011;9492;51.888;5.186;2023-07-02T06:53:47;13.87;;;5.57;;
18726;SDS011;9492;51.888;5.186;2023-07-02T06:56:13;10.63;;;5.43;;
18726;SDS011;9492;51.888;5.186;2023-07-02T06:58:41;10.30;;;5.00;;
18726;SDS011;9492;51.888;5.186;2023-07-02T07:01:08;15.20;;;6.63;;
18726;SDS011;9492;51.888;5.186;2023-07-02T07:03:34;11.73;;;5.07;;
18726;SDS011;9492;51.888;5.186;2023-07-02T07:06:00;13.93;;;5.70;;
18726;SDS011;9492;51.888;5.186;2023-07-02T07:08:26;16.50;;;6.13;;
18726;SDS011;9492;51.888;5.186;2023-07-02T07:10:52;12.23;;;5.20;;
18726;SDS011;9492;51.888;5.186;2023-07-02T07:13:18;12.67;;;5.27;;
18726;SDS011;9492;51.888;5.186;2023-07-02T07:15:44;10.43;;;5.03;;
18726;SDS011;9492;51.888;5.186;2023-07-02T07:18:10;10.50;;;4.50;;
18726;SDS011;9492;51.888;5.186;2023-07-02T07:20:38;11.80;;;5.37;;
18726;SDS011;9492;51.888;5.186;2023-07-02T07:23:05;12.07;;;5.47;;
18726;SDS011;9492;51.888;5.186;2023-07-02T07:25:31;8.77;;;5.07;;
18726;SDS011;9492;51.888;5.186;2023-07-02T07:27:59;10.60;;;4.87;;
18726;SDS011;9492;51.888;5.186;2023-07-02T07:30:25;9.13;;;4.97;;
18726;SDS011;9492;51.888;5.186;2023-07-02T07:32:51;10.57;;;4.47;;
18726;SDS011;9492;51.888;5.186;2023-07-02T07:35:18;11.73;;;5.60;;
18726;SDS011;9492;51.888;5.186;2023-07-02T07:37:44;10.13;;;5.37;;
18726;SDS011;9492;51.888;5.186;2023-07-02T07:40:11;13.70;;;5.90;;
18726;SDS011;9492;51.888;5.186;2023-07-02T07:42:37;8.30;;;4.33;;
18726;SDS011;9492;51.888;5.186;2023-07-02T07:45:03;10.93;;;5.03;;
18726;SDS011;9492;51.888;5.186;2023-07-02T07:47:29;10.70;;;5.40;;
18726;SDS011;9492;51.888;5.186;2023-07-02T07:49:55;15.23;;;4.93;;
18726;SDS011;9492;51.888;5.186;2023-07-02T07:52:21;9.10;;;4.80;;
18726;SDS011;9492;51.888;5.186;2023-07-02T07:54:47;10.43;;;5.50;;
18726;SDS011;9492;51.888;5.186;2023-07-02T07:57:14;12.33;;;5.20;;
18726;SDS011;9492;51.888;5.186;2023-07-02T07:59:40;9.63;;;4.80;;
18726;SDS011;9492;51.888;5.186;2023-07-02T08:02:06;9.43;;;5.17;;
18726;SDS011;9492;51.888;5.186;2023-07-02T08:04:32;11.93;;;5.37;;
18726;SDS011;9492;51.888;5.186;2023-07-02T08:06:58;11.07;;;6.00;;
18726;SDS011;9492;51.888;5.186;2023-07-02T08:09:24;9.50;;;4.67;;
18726;SDS011;9492;51.888;5.186;2023-07-02T08:11:50;8.87;;;4.90;;
18726;SDS011;9492;51.888;5.186;2023-07-02T08:14:16;7.00;;;4.83;;
18726;SDS011;9492;51.888;5.186;2023-07-02T08:16:44;9.60;;;5.33;;
18726;SDS011;9492;51.888;5.186;2023-07-02T08:19:11;12.13;;;5.80;;
18726;SDS011;9492;51.888;5.186;2023-07-02T08:21:37;13.07;;;5.10;;
18726;SDS011;9492;51.888;5.186;2023-07-02T08:24:03;8.67;;;4.63;;
18726;SDS011;9492;51.888;5.186;2023-07-02T08:26:30;9.70;;;4.57;;
18726;SDS011;9492;51.888;5.186;2023-07-02T08:28:57;8.60;;;4.80;;
18726;SDS011;9492;51.888;5.186;2023-07-02T08:31:22;8.80;;;5.10;;
18726;SDS011;9492;51.888;5.186;2023-07-02T08:33:48;9.87;;;4.97;;
18726;SDS011;9492;51.888;5.186;2023-07-02T08:36:15;8.47;;;4.40;;
18726;SDS011;9492;51.888;5.186;2023-07-02T08:38:41;12.67;;;5.60;;
18726;SDS011;9492;51.888;5.186;2023-07-02T08:41:08;9.03;;;4.87;;
18726;SDS011;9492;51.888;5.186;2023-07-02T08:43:34;7.40;;;4.43;;
18726;SDS011;9492;51.888;5.186;2023-07-02T08:46:01;9.70;;;4.60;;
18726;SDS011;9492;51.888;5.186;2023-07-02T08:48:28;7.60;;;4.80;;
18726;SDS011;9492;51.888;5.186;2023-07-02T08:50:55;8.10;;;4.70;;
18726;SDS011;9492;51.888;5.186;2023-07-02T08:53:21;14.20;;;5.10;;
18726;SDS011;9492;51.888;5.186;2023-07-02T08:55:54;8.77;;;4.87;;
18726;SDS011;9492;51.888;5.186;2023-07-02T08:58:21;8.77;;;4.40;;
18726;SDS011;9492;51.888;5.186;2023-07-02T09:03:35;9.17;;;5.17;;
18726;SDS011;9492;51.888;5.186;2023-07-02T09:06:05;9.20;;;4.70;;
18726;SDS011;9492;51.888;5.186;2023-07-02T09:08:31;7.93;;;4.43;;
18726;SDS011;9492;51.888;5.186;2023-07-02T09:11:09;7.90;;;4.57;;
18726;SDS011;9492;51.888;5.186;2023-07-02T09:13:42;7.53;;;4.30;;
18726;SDS011;9492;51.888;5.186;2023-07-02T09:18:55;8.40;;;4.77;;
18726;SDS011;9492;51.888;5.186;2023-07-02T09:21:21;8.47;;;4.47;;
18726;SDS011;9492;51.888;5.186;2023-07-02T09:23:47;4.93;;;3.27;;
18726;SDS011;9492;51.888;5.186;2023-07-02T09:26:23;7.93;;;4.20;;
18726;SDS011;9492;51.888;5.186;2023-07-02T09:28:49;8.40;;;4.10;;
18726;SDS011;9492;51.888;5.186;2023-07-02T09:31:15;7.57;;;3.63;;
18726;SDS011;9492;51.888;5.186;2023-07-02T09:33:41;6.80;;;3.80;;
18726;SDS011;9492;51.888;5.186;2023-07-02T09:36:07;6.60;;;3.70;;
18726;SDS011;9492;51.888;5.186;2023-07-02T09:38:33;6.50;;;3.47;;
18726;SDS011;9492;51.888;5.186;2023-07-02T09:40:59;6.13;;;4.10;;
18726;SDS011;9492;51.888;5.186;2023-07-02T09:43:25;7.47;;;3.50;;
18726;SDS011;9492;51.888;5.186;2023-07-02T09:45:52;4.93;;;3.03;;
18726;SDS011;9492;51.888;5.186;2023-07-02T09:48:18;4.80;;;3.70;;
18726;SDS011;9492;51.888;5.186;2023-07-02T09:50:48;7.17;;;4.00;;
18726;SDS011;9492;51.888;5.186;2023-07-02T09:53:14;6.83;;;3.47;;
18726;SDS011;9492;51.888;5.186;2023-07-02T09:55:44;7.80;;;3.73;;
18726;SDS011;9492;51.888;5.186;2023-07-02T09:58:10;4.93;;;3.07;;
18726;SDS011;9492;51.888;5.186;2023-07-02T10:00:39;5.03;;;3.50;;
18726;SDS011;9492;51.888;5.186;2023-07-02T10:03:05;5.17;;;3.20;;
18726;SDS011;9492;51.888;5.186;2023-07-02T10:05:32;4.00;;;2.90;;
18726;SDS011;9492;51.888;5.186;2023-07-02T10:07:59;4.50;;;3.43;;
18726;SDS011;9492;51.888;5.186;2023-07-02T10:10:37;4.83;;;2.97;;
18726;SDS011;9492;51.888;5.186;2023-07-02T10:13:03;5.73;;;3.50;;
18726;SDS011;9492;51.888;5.186;2023-07-02T10:15:30;4.87;;;3.40;;
18726;SDS011;9492;51.888;5.186;2023-07-02T10:18:00;4.70;;;3.53;;
18726;SDS011;9492;51.888;5.186;2023-07-02T10:20:33;6.83;;;3.70;;
18726;SDS011;9492;51.888;5.186;2023-07-02T10:22:59;4.40;;;3.00;;
18726;SDS011;9492;51.888;5.186;2023-07-02T10:25:27;7.13;;;3.60;;
18726;SDS011;9492;51.888;5.186;2023-07-02T10:27:54;6.57;;;3.43;;
18726;SDS011;9492;51.888;5.186;2023-07-02T10:30:30;6.10;;;3.23;;
18726;SDS011;9492;51.888;5.186;2023-07-02T10:33:06;5.93;;;2.97;;
18726;SDS011;9492;51.888;5.186;2023-07-02T10:35:33;7.43;;;3.33;;
18726;SDS011;9492;51.888;5.186;2023-07-02T10:37:59;3.83;;;2.87;;
18726;SDS011;9492;51.888;5.186;2023-07-02T10:40:25;6.23;;;2.90;;
18726;SDS011;9492;51.888;5.186;2023-07-02T10:42:52;5.27;;;3.60;;
18726;SDS011;9492;51.888;5.186;2023-07-02T10:45:18;6.53;;;2.97;;
18726;SDS011;9492;51.888;5.186;2023-07-02T10:47:45;5.57;;;3.10;;
18726;SDS011;9492;51.888;5.186;2023-07-02T10:50:20;4.13;;;3.07;;
18726;SDS011;9492;51.888;5.186;2023-07-02T10:52:48;5.83;;;3.50;;
18726;SDS011;9492;51.888;5.186;2023-07-02T10:55:17;5.93;;;2.77;;
18726;SDS011;9492;51.888;5.186;2023-07-02T10:57:43;5.37;;;3.23;;
18726;SDS011;9492;51.888;5.186;2023-07-02T11:00:10;5.30;;;2.47;;
18726;SDS011;9492;51.888;5.186;2023-07-02T11:02:39;5.77;;;3.13;;
18726;SDS011;9492;51.888;5.186;2023-07-02T11:05:06;3.73;;;2.97;;
18726;SDS011;9492;51.888;5.186;2023-07-02T11:07:40;3.97;;;2.90;;
18726;SDS011;9492;51.888;5.186;2023-07-02T11:10:10;7.30;;;3.40;;
18726;SDS011;9492;51.888;5.186;2023-07-02T11:12:36;4.33;;;2.93;;
18726;SDS011;9492;51.888;5.186;2023-07-02T11:15:15;5.70;;;3.43;;
18726;SDS011;9492;51.888;5.186;2023-07-02T11:17:42;6.70;;;3.20;;
18726;SDS011;9492;51.888;5.186;2023-07-02T11:20:09;6.00;;;3.17;;
18726;SDS011;9492;51.888;5.186;2023-07-02T11:22:35;6.30;;;2.93;;
18726;SDS011;9492;51.888;5.186;2023-07-02T11:25:11;3.30;;;2.67;;
18726;SDS011;9492;51.888;5.186;2023-07-02T11:27:37;4.30;;;2.83;;
18726;SDS011;9492;51.888;5.186;2023-07-02T11:30:04;5.50;;;3.10;;
18726;SDS011;9492;51.888;5.186;2023-07-02T11:32:30;5.73;;;3.40;;
18726;SDS011;9492;51.888;5.186;2023-07-02T11:34:56;6.17;;;3.63;;
18726;SDS011;9492;51.888;5.186;2023-07-02T11:37:22;5.07;;;3.43;;
18726;SDS011;9492;51.888;5.186;2023-07-02T11:39:48;6.73;;;2.90;;
18726;SDS011;9492;51.888;5.186;2023-07-02T11:42:14;5.97;;;3.03;;
18726;SDS011;9492;51.888;5.186;2023-07-02T11:44:40;2.80;;;2.50;;
18726;SDS011;9492;51.888;5.186;2023-07-02T11:47:06;4.10;;;2.87;;
18726;SDS011;9492;51.888;5.186;2023-07-02T11:49:32;8.80;;;4.07;;
18726;SDS011;9492;51.888;5.186;2023-07-02T11:51:58;4.63;;;2.40;;
18726;SDS011;9492;51.888;5.186;2023-07-02T11:54:24;6.63;;;2.83;;
18726;SDS011;9492;51.888;5.186;2023-07-02T11:56:50;4.73;;;3.00;;
18726;SDS011;9492;51.888;5.186;2023-07-02T11:59:16;5.57;;;3.00;;
18726;SDS011;9492;51.888;5.186;2023-07-02T12:01:43;9.40;;;3.20;;
18726;SDS011;9492;51.888;5.186;2023-07-02T12:04:09;5.40;;;3.23;;
18726;SDS011;9492;51.888;5.186;2023-07-02T12:06:37;5.90;;;2.70;;
18726;SDS011;9492;51.888;5.186;2023-07-02T12:09:03;6.13;;;2.60;;
18726;SDS011;9492;51.888;5.186;2023-07-02T12:11:29;5.73;;;2.87;;
18726;SDS011;9492;51.888;5.186;2023-07-02T12:13:55;6.63;;;3.40;;
18726;SDS011;9492;51.888;5.186;2023-07-02T12:16:21;5.57;;;2.93;;
18726;SDS011;9492;51.888;5.186;2023-07-02T12:18:47;5.47;;;2.90;;
18726;SDS011;9492;51.888;5.186;2023-07-02T12:21:13;4.03;;;2.90;;
18726;SDS011;9492;51.888;5.186;2023-07-02T12:23:40;5.63;;;3.30;;
18726;SDS011;9492;51.888;5.186;2023-07-02T12:26:06;5.70;;;3.33;;
18726;SDS011;9492;51.888;5.186;2023-07-02T12:28:32;8.67;;;3.30;;
18726;SDS011;9492;51.888;5.186;2023-07-02T12:30:58;8.47;;;3.67;;
18726;SDS011;9492;51.888;5.186;2023-07-02T12:33:24;6.80;;;3.30;;
18726;SDS011;9492;51.888;5.186;2023-07-02T12:35:50;7.27;;;3.80;;
18726;SDS011;9492;51.888;5.186;2023-07-02T12:38:16;5.43;;;3.33;;
18726;SDS011;9492;51.888;5.186;2023-07-02T12:40:42;5.90;;;3.50;;
18726;SDS011;9492;51.888;5.186;2023-07-02T12:43:08;8.20;;;3.37;;
18726;SDS011;9492;51.888;5.186;2023-07-02T12:45:34;5.03;;;3.47;;
18726;SDS011;9492;51.888;5.186;2023-07-02T12:48:00;6.57;;;3.73;;
18726;SDS011;9492;51.888;5.186;2023-07-02T12:50:26;5.63;;;3.87;;
18726;SDS011;9492;51.888;5.186;2023-07-02T12:52:52;5.30;;;3.00;;
18726;SDS011;9492;51.888;5.186;2023-07-02T12:55:18;5.67;;;3.50;;
18726;SDS011;9492;51.888;5.186;2023-07-02T12:57:44;6.17;;;3.43;;
18726;SDS011;9492;51.888;5.186;2023-07-02T13:00:11;6.10;;;3.53;;
18726;SDS011;9492;51.888;5.186;2023-07-02T13:02:37;7.80;;;4.03;;
18726;SDS011;9492;51.888;5.186;2023-07-02T13:05:03;7.80;;;3.87;;
18726;SDS011;9492;51.888;5.186;2023-07-02T13:07:29;6.87;;;3.83;;
18726;SDS011;9492;51.888;5.186;2023-07-02T13:09:55;7.43;;;3.23;;
18726;SDS011;9492;51.888;5.186;2023-07-02T13:12:21;6.13;;;3.50;;
18726;SDS011;9492;51.888;5.186;2023-07-02T13:14:47;8.20;;;4.03;;
18726;SDS011;9492;51.888;5.186;2023-07-02T13:17:13;9.20;;;4.23;;
18726;SDS011;9492;51.888;5.186;2023-07-02T13:19:39;7.10;;;3.40;;
18726;SDS011;9492;51.888;5.186;2023-07-02T13:22:05;7.67;;;3.67;;
18726;SDS011;9492;51.888;5.186;2023-07-02T13:24:32;8.03;;;4.13;;
18726;SDS011;9492;51.888;5.186;2023-07-02T13:27:04;6.97;;;4.43;;
18726;SDS011;9492;51.888;5.186;2023-07-02T13:29:32;5.37;;;3.33;;
18726;SDS011;9492;51.888;5.186;2023-07-02T13:31:58;8.57;;;4.03;;
18726;SDS011;9492;51.888;5.186;2023-07-02T13:34:24;8.10;;;4.20;;
18726;SDS011;9492;51.888;5.186;2023-07-02T13:36:50;6.27;;;3.90;;
18726;SDS011;9492;51.888;5.186;2023-07-02T13:39:16;8.97;;;3.80;;
18726;SDS011;9492;51.888;5.186;2023-07-02T13:41:42;6.70;;;4.10;;
18726;SDS011;9492;51.888;5.186;2023-07-02T13:44:08;7.70;;;3.83;;
18726;SDS011;9492;51.888;5.186;2023-07-02T13:46:34;8.23;;;3.47;;
18726;SDS011;9492;51.888;5.186;2023-07-02T13:49:00;5.20;;;3.63;;
18726;SDS011;9492;51.888;5.186;2023-07-02T13:51:26;6.10;;;3.80;;
18726;SDS011;9492;51.888;5.186;2023-07-02T13:53:52;9.20;;;4.50;;
18726;SDS011;9492;51.888;5.186;2023-07-02T13:56:18;7.37;;;4.20;;
18726;SDS011;9492;51.888;5.186;2023-07-02T14:01:12;5.20;;;3.50;;
18726;SDS011;9492;51.888;5.186;2023-07-02T14:03:38;4.90;;;3.57;;
18726;SDS011;9492;51.888;5.186;2023-07-02T14:06:04;11.67;;;3.30;;
18726;SDS011;9492;51.888;5.186;2023-07-02T14:08:30;8.43;;;3.50;;
18726;SDS011;9492;51.888;5.186;2023-07-02T14:10:56;7.60;;;3.23;;
18726;SDS011;9492;51.888;5.186;2023-07-02T14:13:22;5.17;;;3.20;;
18726;SDS011;9492;51.888;5.186;2023-07-02T14:15:49;6.67;;;2.90;;
18726;SDS011;9492;51.888;5.186;2023-07-02T14:18:15;4.00;;;2.80;;
18726;SDS011;9492;51.888;5.186;2023-07-02T14:20:41;7.87;;;3.33;;
18726;SDS011;9492;51.888;5.186;2023-07-02T14:23:07;6.27;;;3.67;;
18726;SDS011;9492;51.888;5.186;2023-07-02T14:25:34;4.97;;;3.17;;
18726;SDS011;9492;51.888;5.186;2023-07-02T14:28:00;6.43;;;3.20;;
18726;SDS011;9492;51.888;5.186;2023-07-02T14:30:26;5.23;;;3.20;;
18726;SDS011;9492;51.888;5.186;2023-07-02T14:32:52;5.50;;;3.83;;
18726;SDS011;9492;51.888;5.186;2023-07-02T14:35:18;7.83;;;3.60;;
18726;SDS011;9492;51.888;5.186;2023-07-02T14:37:47;6.93;;;3.40;;
18726;SDS011;9492;51.888;5.186;2023-07-02T14:40:13;5.70;;;3.97;;
18726;SDS011;9492;51.888;5.186;2023-07-02T14:42:39;5.10;;;3.40;;
18726;SDS011;9492;51.888;5.186;2023-07-02T14:45:05;7.17;;;3.93;;
18726;SDS011;9492;51.888;5.186;2023-07-02T14:47:31;6.63;;;3.57;;
18726;SDS011;9492;51.888;5.186;2023-07-02T14:49:57;5.67;;;3.27;;
18726;SDS011;9492;51.888;5.186;2023-07-02T14:52:23;7.60;;;3.63;;
18726;SDS011;9492;51.888;5.186;2023-07-02T14:54:49;5.93;;;3.47;;
18726;SDS011;9492;51.888;5.186;2023-07-02T14:57:15;7.03;;;3.50;;
18726;SDS011;9492;51.888;5.186;2023-07-02T14:59:44;5.10;;;3.47;;
18726;SDS011;9492;51.888;5.186;2023-07-02T15:02:10;5.33;;;3.23;;